SBA weather

Santa Barbara Municipal Airport
Santa Barbara, California, United States

Public forecast

Using degrees Fahrenheit for public forecast. Weather courtesy of forecast.io.

Current aviation weather report (METAR) for Santa Barbara Municipal Airport

Retrieved 2019/11/15 20:53 UTC (1 hour ago):

KSBA 152053Z 23006KT 10SM SCT180 18/13 A3004 RMK AO2 SLP173 T01830128 58022

Aviation forecast (TAF) for Santa Barbara Municipal Airport

Retrieved 2019/11/15 18:30 UTC (3 hours ago):

TAF KSBA 151729Z 1518/1618 17005KT P6SM BKN200 FM152000 24008KT P6SM BKN200 FM160200 VRB03KT P6SM SCT200 FM160800 04006KT P6SM SCT200 FM161500 VRB03KT P6SM SCT200